createdAt,value
2022-08-05T00:04:32.750Z,25.70
2022-08-05T00:09:33.198Z,25.70
2022-08-05T00:14:32.420Z,25.60
2022-08-05T00:19:32.863Z,25.50
2022-08-05T00:24:33.640Z,25.50
2022-08-05T00:29:37.756Z,25.40
2022-08-05T00:34:55.130Z,25.30
2022-08-05T00:39:58.600Z,25.20
2022-08-05T00:44:57.404Z,25.00
2022-08-05T00:49:55.961Z,25.00
2022-08-05T00:54:57.196Z,24.90
2022-08-05T00:59:56.548Z,24.90
2022-08-05T01:04:54.787Z,24.80
2022-08-05T01:09:55.644Z,24.80
2022-08-05T01:15:04.149Z,24.90
2022-08-05T01:20:13.228Z,24.80
2022-08-05T01:25:41.560Z,24.80
2022-08-05T01:30:50.696Z,24.70
2022-08-05T01:35:57.430Z,24.60
2022-08-05T01:40:58.593Z,24.50
2022-08-05T01:46:07.559Z,24.50
2022-08-05T01:51:17.988Z,24.50
2022-08-05T01:58:10.299Z,24.20
2022-08-05T02:01:40.263Z,23.90
2022-08-05T02:06:39.417Z,23.80
2022-08-05T02:11:52.649Z,23.50
2022-08-05T02:16:54.438Z,23.50
2022-08-05T02:21:59.419Z,23.50
2022-08-05T02:27:01.100Z,23.60
2022-08-05T02:32:12.480Z,23.70
2022-08-05T02:37:23.414Z,23.70
2022-08-05T02:42:27.358Z,23.80
2022-08-05T02:47:58.703Z,23.60
2022-08-05T02:52:50.590Z,23.70
2022-08-05T02:58:10.839Z,23.70
2022-08-05T03:03:10.248Z,23.60
2022-08-05T03:08:10.966Z,23.70
2022-08-05T03:13:17.119Z,23.70
2022-08-05T03:18:17.433Z,23.70
2022-08-05T03:23:16.572Z,23.50
2022-08-05T03:28:18.867Z,23.30
2022-08-05T03:33:19.733Z,23.30
2022-08-05T03:38:32.854Z,23.30
2022-08-05T03:44:10.042Z,23.40
2022-08-05T03:48:51.372Z,23.40
2022-08-05T03:55:00.349Z,23.50
2022-08-05T03:59:47.001Z,23.50
2022-08-05T04:04:47.089Z,23.50
2022-08-05T04:09:53.623Z,23.50
2022-08-05T04:14:52.527Z,23.50
2022-08-05T04:19:54.558Z,23.50
2022-08-05T04:24:56.901Z,23.50
2022-08-05T04:29:59.462Z,23.40
2022-08-05T04:35:03.840Z,23.40
2022-08-05T04:40:02.924Z,23.40
2022-08-05T04:45:01.830Z,23.40
2022-08-05T04:50:10.944Z,23.30
2022-08-05T04:55:14.821Z,23.30
2022-08-05T05:00:14.486Z,23.30
2022-08-05T05:05:16.533Z,23.20
2022-08-05T05:10:25.531Z,23.20
2022-08-05T05:15:57.246Z,23.20
2022-08-05T05:20:46.621Z,23.20
2022-08-05T05:25:49.448Z,23.10
2022-08-05T05:30:50.011Z,23.10
2022-08-05T05:35:48.815Z,23.00
2022-08-05T05:40:51.200Z,23.00
2022-08-05T05:45:51.212Z,23.00
2022-08-05T05:50:49.480Z,22.90
2022-08-05T05:55:51.465Z,22.80
2022-08-05T06:01:12.326Z,22.80
2022-08-05T06:06:11.702Z,22.80
2022-08-05T06:11:10.005Z,22.70
2022-08-05T06:16:30.124Z,22.60
2022-08-05T06:21:36.958Z,22.70
2022-08-05T06:26:36.132Z,22.70
2022-08-05T06:31:35.876Z,22.60
2022-08-05T06:43:58.550Z,22.50
2022-08-05T06:48:56.066Z,22.70
2022-08-05T06:53:57.937Z,22.70
2022-08-05T06:58:57.233Z,22.90
2022-08-05T07:03:56.997Z,22.90
2022-08-05T07:08:55.235Z,23.00
2022-08-05T07:14:15.342Z,23.00
2022-08-05T07:19:44.215Z,22.90
2022-08-05T07:24:44.024Z,23.00
2022-08-05T07:30:24.480Z,23.10
2022-08-05T07:36:01.814Z,23.20
2022-08-05T07:40:31.766Z,23.20
2022-08-05T07:45:57.214Z,23.30
2022-08-05T07:50:51.223Z,23.20
2022-08-05T07:56:06.329Z,23.20
2022-08-05T08:01:12.395Z,23.20
2022-08-05T08:06:12.240Z,23.20
2022-08-05T08:11:10.497Z,23.20
2022-08-05T08:16:34.834Z,23.20
2022-08-05T08:21:33.760Z,23.20
2022-08-05T08:26:32.041Z,23.20
2022-08-05T08:31:30.628Z,23.10
2022-08-05T08:36:50.622Z,23.10
2022-08-05T08:42:00.101Z,23.10
2022-08-05T08:47:03.683Z,23.10
2022-08-05T08:52:26.018Z,23.10
2022-08-05T08:57:42.126Z,23.10
2022-08-05T09:02:47.234Z,23.10
2022-08-05T09:07:57.707Z,23.10
2022-08-05T09:13:04.724Z,23.10
2022-08-05T09:18:03.580Z,23.00
2022-08-05T09:23:22.107Z,23.00
2022-08-05T09:28:31.448Z,22.90
2022-08-05T09:33:35.119Z,23.00
2022-08-05T09:38:34.816Z,22.90
2022-08-05T09:43:40.461Z,22.90
2022-08-05T09:48:40.480Z,23.00
2022-08-05T09:53:59.291Z,23.00
2022-08-05T09:59:02.538Z,23.00
2022-08-05T10:04:10.732Z,23.00
2022-08-05T10:09:28.350Z,23.10
2022-08-05T10:21:18.261Z,23.10
2022-08-05T10:26:24.251Z,23.00
2022-08-05T10:32:51.521Z,23.00
2022-08-05T10:36:50.529Z,23.10
2022-08-05T10:41:57.916Z,23.20
2022-08-05T10:46:59.079Z,23.30
2022-08-05T10:52:00.783Z,23.30
2022-08-05T10:57:00.971Z,23.30
2022-08-05T11:02:14.495Z,23.30
2022-08-05T11:07:33.039Z,23.40
2022-08-05T11:12:54.449Z,23.40
2022-08-05T11:17:58.859Z,23.50
2022-08-05T11:23:06.026Z,23.50
2022-08-05T11:28:43.044Z,23.50
2022-08-05T11:33:55.089Z,23.50
2022-08-05T11:38:57.757Z,23.40
2022-08-05T11:44:04.870Z,23.30
2022-08-05T11:49:08.111Z,23.20
2022-08-05T11:54:11.324Z,23.10
2022-08-05T11:59:16.185Z,23.00
2022-08-05T12:04:19.510Z,23.00
2022-08-05T12:09:38.667Z,22.90
2022-08-05T12:14:47.308Z,22.90
2022-08-05T12:20:25.654Z,22.80
2022-08-05T12:25:08.205Z,22.70
2022-08-05T12:30:15.243Z,22.60
2022-08-05T12:35:16.905Z,22.60
2022-08-05T12:40:26.734Z,22.60
2022-08-05T12:45:48.365Z,22.60
2022-08-05T12:50:45.499Z,22.70
2022-08-05T12:55:47.453Z,22.80
2022-08-05T13:02:00.690Z,22.90
2022-08-05T13:06:10.435Z,23.00
2022-08-05T13:11:59.951Z,23.10
2022-08-05T13:16:49.573Z,23.10
2022-08-05T13:21:52.549Z,23.10
2022-08-05T13:26:56.223Z,23.10
2022-08-05T13:32:04.633Z,23.10
2022-08-05T13:37:03.566Z,23.10
2022-08-05T13:42:03.138Z,23.10
2022-08-05T13:47:02.550Z,23.20
2022-08-05T13:52:14.003Z,23.30
2022-08-05T13:57:21.756Z,23.40
2022-08-05T14:02:26.485Z,23.40
2022-08-05T14:08:32.663Z,23.50
2022-08-05T14:13:32.975Z,23.70
2022-08-05T14:18:32.785Z,23.70
2022-08-05T14:23:36.459Z,23.80
2022-08-05T14:28:36.842Z,23.90
2022-08-05T14:34:00.132Z,23.90
2022-08-05T14:38:58.979Z,24.10
2022-08-05T14:44:09.782Z,24.20
2022-08-05T14:49:15.794Z,24.40
2022-08-05T14:54:28.328Z,24.50
2022-08-05T14:59:35.425Z,24.60
2022-08-05T15:04:34.236Z,24.70
2022-08-05T15:09:51.331Z,24.80
2022-08-05T15:14:52.769Z,24.80
2022-08-05T15:19:55.204Z,25.00
2022-08-05T15:24:53.517Z,25.10
2022-08-05T15:29:56.567Z,25.20
2022-08-05T15:34:55.188Z,25.20
2022-08-05T15:40:58.322Z,25.30
2022-08-05T15:45:14.225Z,25.40
2022-08-05T15:50:15.867Z,25.50
2022-08-05T15:55:16.078Z,25.50
2022-08-05T16:00:26.167Z,25.50
2022-08-05T16:05:38.954Z,25.50
2022-08-05T16:10:37.383Z,25.50
2022-08-05T16:15:41.082Z,25.60
2022-08-05T16:20:40.091Z,25.70
2022-08-05T16:25:38.507Z,25.70
2022-08-05T16:30:37.219Z,25.80
2022-08-05T16:35:42.405Z,25.90
2022-08-05T16:40:42.911Z,25.80
2022-08-05T16:46:06.745Z,25.70
2022-08-05T16:51:10.768Z,25.60
2022-08-05T16:56:09.699Z,25.40
2022-08-05T17:01:10.608Z,25.30
2022-08-05T17:06:10.769Z,25.20
2022-08-05T17:11:12.795Z,25.00
2022-08-05T17:16:35.866Z,24.80
2022-08-05T17:21:36.735Z,24.60
2022-08-05T17:26:35.269Z,24.40
2022-08-05T17:31:41.338Z,24.40
2022-08-05T17:36:53.210Z,24.30
2022-08-05T17:42:19.871Z,24.20
2022-08-05T17:47:11.629Z,24.10
2022-08-05T17:52:11.776Z,24.00
2022-08-05T17:57:12.015Z,24.00
2022-08-05T18:02:11.072Z,23.90
2022-08-05T18:07:12.310Z,23.70
2022-08-05T18:12:13.328Z,23.60
2022-08-05T18:17:58.712Z,23.50
2022-08-05T18:22:54.206Z,23.40
2022-08-05T18:27:54.599Z,23.30
2022-08-05T18:33:00.366Z,23.20
2022-08-05T18:37:59.542Z,23.00
2022-08-05T18:42:59.493Z,22.90
2022-08-05T18:47:58.030Z,22.70
2022-08-05T18:52:58.312Z,22.60
2022-08-05T18:58:03.032Z,22.50
2022-08-05T19:03:04.185Z,22.40
2022-08-05T19:08:02.898Z,22.30
2022-08-05T19:13:02.601Z,22.20
2022-08-05T19:18:10.494Z,22.10
2022-08-05T19:24:03.271Z,21.90
2022-08-05T19:28:33.018Z,21.80
2022-08-05T19:33:35.064Z,21.70
2022-08-05T19:38:34.358Z,21.70
2022-08-05T19:44:05.830Z,21.60
2022-08-05T19:48:53.957Z,21.60
2022-08-05T19:54:03.570Z,21.50
2022-08-05T19:59:54.517Z,21.50
2022-08-05T20:04:24.727Z,21.30
2022-08-05T20:09:23.350Z,21.20
2022-08-05T20:14:26.771Z,21.10
2022-08-05T20:19:32.179Z,21.00
2022-08-05T20:24:34.582Z,21.00
2022-08-05T20:29:34.869Z,21.00
2022-08-05T20:34:33.542Z,20.90
2022-08-05T20:39:36.396Z,20.80
2022-08-05T20:44:38.045Z,20.80
2022-08-05T20:49:39.263Z,20.70
2022-08-05T20:54:43.610Z,20.70
2022-08-05T21:00:20.169Z,20.60
2022-08-05T21:05:15.973Z,20.50
2022-08-05T21:10:14.273Z,20.50
2022-08-05T21:15:13.975Z,20.40
2022-08-05T21:20:13.237Z,20.30
2022-08-05T21:25:34.070Z,20.20
2022-08-05T21:30:33.822Z,20.20
2022-08-05T21:35:43.757Z,20.10
2022-08-05T21:40:50.367Z,20.00
2022-08-05T21:45:56.500Z,19.90
2022-08-05T21:50:56.020Z,19.90
2022-08-05T21:56:05.808Z,19.80
2022-08-05T22:01:23.906Z,19.80
2022-08-05T22:06:35.068Z,19.70
2022-08-05T22:11:35.839Z,19.70
2022-08-05T22:16:51.005Z,19.60
2022-08-05T22:21:50.697Z,19.60
2022-08-05T22:27:06.781Z,19.50
2022-08-05T22:32:10.420Z,19.40
2022-08-05T22:37:08.785Z,19.40
2022-08-05T22:42:12.602Z,19.40
2022-08-05T22:47:14.931Z,19.30
2022-08-05T22:52:32.414Z,19.30
2022-08-05T22:57:36.310Z,19.20
2022-08-05T23:02:36.866Z,19.20
2022-08-05T23:07:48.673Z,19.10
2022-08-05T23:12:51.490Z,19.10
2022-08-05T23:18:00.800Z,19.00
2022-08-05T23:23:03.584Z,18.90
2022-08-05T23:28:06.996Z,18.90
2022-08-05T23:33:07.048Z,18.80
2022-08-05T23:38:14.834Z,18.80
2022-08-05T23:43:24.772Z,18.80
2022-08-05T23:48:34.913Z,18.70
2022-08-05T23:53:46.620Z,18.70
2022-08-05T23:58:46.042Z,18.70
